createdAt,value
2022-12-07T00:00:21.549Z,2.80
2022-12-07T00:02:48.636Z,2.80
2022-12-07T00:05:15.768Z,2.80
2022-12-07T00:07:43.858Z,2.80
2022-12-07T00:10:10.989Z,2.80
2022-12-07T00:12:38.031Z,2.80
2022-12-07T00:15:05.379Z,2.70
2022-12-07T00:17:32.605Z,2.70
2022-12-07T00:19:59.958Z,2.70
2022-12-07T00:22:27.316Z,2.70
2022-12-07T00:24:54.524Z,2.70
2022-12-07T00:27:21.550Z,2.80
2022-12-07T00:29:48.661Z,2.70
2022-12-07T00:32:15.925Z,2.70
2022-12-07T00:34:43.119Z,2.80
2022-12-07T00:37:10.243Z,2.80
2022-12-07T00:39:37.308Z,2.70
2022-12-07T00:42:04.505Z,2.70
2022-12-07T00:44:31.579Z,2.70
2022-12-07T00:47:42.850Z,2.70
2022-12-07T00:54:09.805Z,2.70
2022-12-07T01:00:36.909Z,2.70
2022-12-07T01:06:58.716Z,2.70
2022-12-07T01:13:19.673Z,2.70
2022-12-07T01:16:04.873Z,2.70
2022-12-07T01:18:32.872Z,2.60
2022-12-07T01:21:06.993Z,2.60
2022-12-07T01:23:59.977Z,2.70
2022-12-07T01:26:27.293Z,2.60
2022-12-07T01:28:55.981Z,2.60
2022-12-07T01:31:24.049Z,2.60
2022-12-07T01:33:52.339Z,2.60
2022-12-07T01:36:23.262Z,2.60
2022-12-07T01:38:52.578Z,2.60
2022-12-07T01:41:19.914Z,2.60
2022-12-07T01:44:05.861Z,2.60
2022-12-07T01:46:33.933Z,2.60
2022-12-07T01:49:00.986Z,2.60
2022-12-07T01:51:29.024Z,2.60
2022-12-07T01:53:56.078Z,2.60
2022-12-07T01:56:23.890Z,2.60
2022-12-07T01:58:50.976Z,2.60
2022-12-07T02:01:18.122Z,2.60
2022-12-07T02:03:45.322Z,2.60
2022-12-07T02:06:13.465Z,2.60
2022-12-07T02:08:40.521Z,2.50
2022-12-07T02:11:07.559Z,2.60
2022-12-07T02:13:35.471Z,2.60
2022-12-07T02:16:05.663Z,2.50
2022-12-07T02:18:38.076Z,2.60
2022-12-07T02:21:17.791Z,2.60
2022-12-07T02:23:47.883Z,2.60
2022-12-07T02:26:14.943Z,2.50
2022-12-07T02:28:57.452Z,2.50
2022-12-07T02:31:24.695Z,2.50
2022-12-07T02:33:54.320Z,2.50
2022-12-07T02:36:23.623Z,2.50
2022-12-07T02:38:50.726Z,2.50
2022-12-07T02:41:19.687Z,2.50
2022-12-07T02:43:53.528Z,2.50
2022-12-07T02:46:22.810Z,2.50
2022-12-07T02:48:49.967Z,2.50
2022-12-07T02:51:18.234Z,2.50
2022-12-07T02:53:45.422Z,2.50
2022-12-07T02:56:31.234Z,2.50
2022-12-07T02:59:18.025Z,2.50
2022-12-07T03:01:58.150Z,2.50
2022-12-07T03:04:31.551Z,2.50
2022-12-07T03:07:01.135Z,2.50
2022-12-07T03:09:29.537Z,2.50
2022-12-07T03:11:59.711Z,2.50
2022-12-07T03:14:30.321Z,2.50
2022-12-07T03:17:26.773Z,2.50
2022-12-07T03:19:54.121Z,2.50
2022-12-07T03:22:21.149Z,2.50
2022-12-07T03:24:49.028Z,2.50
2022-12-07T03:27:17.717Z,2.40
2022-12-07T03:29:45.812Z,2.50
2022-12-07T03:32:15.044Z,2.50
2022-12-07T03:34:47.097Z,2.40
2022-12-07T03:37:23.657Z,2.40
2022-12-07T03:39:55.038Z,2.40
2022-12-07T03:42:22.064Z,2.50
2022-12-07T03:44:49.103Z,2.40
2022-12-07T03:47:25.224Z,2.50
2022-12-07T03:50:13.103Z,2.50
2022-12-07T03:52:41.111Z,2.40
2022-12-07T03:55:10.123Z,2.40
2022-12-07T03:57:37.279Z,2.40
2022-12-07T04:00:05.693Z,2.50
2022-12-07T04:02:39.167Z,2.40
2022-12-07T04:05:06.745Z,2.40
2022-12-07T04:07:33.829Z,2.40
2022-12-07T04:10:01.380Z,2.40
2022-12-07T04:12:28.649Z,2.40
2022-12-07T04:14:55.675Z,2.40
2022-12-07T04:17:22.824Z,2.50
2022-12-07T04:19:49.879Z,2.40
2022-12-07T04:22:16.948Z,2.40
2022-12-07T04:24:44.005Z,2.50
2022-12-07T04:27:11.091Z,2.40
2022-12-07T04:29:38.160Z,2.40
2022-12-07T04:32:05.287Z,2.50
2022-12-07T04:34:32.384Z,2.50
2022-12-07T04:36:59.522Z,2.40
2022-12-07T04:39:27.489Z,2.40
2022-12-07T04:41:54.573Z,2.40
2022-12-07T04:44:21.969Z,2.40
2022-12-07T04:46:49.180Z,2.40
2022-12-07T04:49:16.372Z,2.40
2022-12-07T04:51:43.469Z,2.40
2022-12-07T04:54:10.596Z,2.50
2022-12-07T04:56:37.713Z,2.40
2022-12-07T04:59:04.777Z,2.40
2022-12-07T05:01:32.098Z,2.40
2022-12-07T05:03:59.161Z,2.40
2022-12-07T05:06:26.388Z,2.40
2022-12-07T05:08:53.478Z,2.40
2022-12-07T05:11:38.863Z,2.40
2022-12-07T05:14:18.428Z,2.40
2022-12-07T05:16:46.047Z,2.40
2022-12-07T05:19:13.228Z,2.40
2022-12-07T05:21:40.269Z,2.40
2022-12-07T05:24:07.640Z,2.40
2022-12-07T05:26:35.124Z,2.40
2022-12-07T05:29:03.258Z,2.40
2022-12-07T05:31:30.385Z,2.30
2022-12-07T05:33:57.448Z,2.30
2022-12-07T05:36:24.588Z,2.30
2022-12-07T05:38:51.685Z,2.30
2022-12-07T05:41:37.402Z,2.30
2022-12-07T05:44:04.887Z,2.30
2022-12-07T05:46:31.937Z,2.30
2022-12-07T05:48:58.998Z,2.30
2022-12-07T05:51:26.102Z,2.20
2022-12-07T05:53:53.159Z,2.20
2022-12-07T05:56:20.237Z,2.20
2022-12-07T05:59:05.957Z,2.30
2022-12-07T06:01:33.034Z,2.20
2022-12-07T06:04:00.193Z,2.20
2022-12-07T06:06:27.416Z,2.20
2022-12-07T06:08:54.607Z,2.30
2022-12-07T06:11:42.211Z,2.30
2022-12-07T06:14:09.247Z,2.30
2022-12-07T06:16:36.331Z,2.20
2022-12-07T06:19:03.420Z,2.20
2022-12-07T06:21:31.557Z,2.20
2022-12-07T06:23:58.643Z,2.20
2022-12-07T06:26:25.692Z,2.20
2022-12-07T06:28:52.793Z,2.20
2022-12-07T06:31:19.944Z,2.20
2022-12-07T06:33:47.157Z,2.20
2022-12-07T06:36:14.254Z,2.20
2022-12-07T06:38:41.321Z,2.20
2022-12-07T06:41:08.398Z,2.20
2022-12-07T06:43:35.674Z,2.20
2022-12-07T06:46:02.763Z,2.20
2022-12-07T06:48:29.877Z,2.20
2022-12-07T06:50:56.942Z,2.20
2022-12-07T06:53:24.076Z,2.20
2022-12-07T06:55:51.220Z,2.20
2022-12-07T06:58:18.352Z,2.20
2022-12-07T07:00:45.859Z,2.20
2022-12-07T07:03:13.166Z,2.20
2022-12-07T07:05:40.249Z,2.20
2022-12-07T07:08:23.516Z,2.20
2022-12-07T07:10:51.628Z,2.20
2022-12-07T07:13:18.682Z,2.10
2022-12-07T07:15:45.735Z,2.20
2022-12-07T07:18:12.835Z,2.20
2022-12-07T07:20:39.941Z,2.20
2022-12-07T07:23:06.985Z,2.20
2022-12-07T07:25:34.027Z,2.20
2022-12-07T07:28:01.216Z,2.10
2022-12-07T07:30:28.503Z,2.10
2022-12-07T07:32:59.521Z,2.20
2022-12-07T07:35:26.925Z,2.20
2022-12-07T07:37:54.002Z,2.20
2022-12-07T07:40:21.170Z,2.20
2022-12-07T07:42:50.506Z,2.20
2022-12-07T07:45:17.840Z,2.20
2022-12-07T07:47:44.923Z,2.20
2022-12-07T07:50:12.116Z,2.20
2022-12-07T07:52:39.109Z,2.20
2022-12-07T07:55:06.477Z,2.20
2022-12-07T07:57:33.531Z,2.20
2022-12-07T08:00:01.186Z,2.20
2022-12-07T08:02:32.088Z,2.20
2022-12-07T08:04:59.398Z,2.30
2022-12-07T08:07:27.432Z,2.30
2022-12-07T08:09:54.698Z,2.30
2022-12-07T08:12:21.744Z,2.30
2022-12-07T08:14:48.959Z,2.20
2022-12-07T08:17:16.006Z,2.30
2022-12-07T08:19:43.073Z,2.30
2022-12-07T08:22:10.105Z,2.30
2022-12-07T08:24:37.313Z,2.30
2022-12-07T08:27:04.456Z,2.40
2022-12-07T08:29:31.679Z,2.30
2022-12-07T08:31:58.795Z,2.40
2022-12-07T08:34:25.818Z,2.40
2022-12-07T08:36:52.885Z,2.40
2022-12-07T08:39:31.235Z,2.40
2022-12-07T08:41:59.181Z,2.40
2022-12-07T08:44:26.308Z,2.40
2022-12-07T08:46:57.430Z,2.50
2022-12-07T08:49:25.784Z,2.50
2022-12-07T08:51:52.792Z,2.50
2022-12-07T08:54:20.031Z,2.60
2022-12-07T08:56:47.266Z,2.60
2022-12-07T08:59:14.668Z,2.60
2022-12-07T09:01:41.794Z,2.60
2022-12-07T09:04:08.877Z,2.70
2022-12-07T09:06:36.107Z,2.70
2022-12-07T09:09:03.339Z,2.70
2022-12-07T09:11:30.438Z,2.70
2022-12-07T09:13:57.541Z,2.70
2022-12-07T09:16:24.994Z,2.70
2022-12-07T09:18:52.067Z,2.80
2022-12-07T09:21:19.249Z,2.80
2022-12-07T09:23:46.303Z,2.80
2022-12-07T09:26:13.416Z,2.80
2022-12-07T09:28:41.219Z,2.80
2022-12-07T09:31:26.861Z,2.90
2022-12-07T09:33:57.626Z,2.90
2022-12-07T09:36:25.236Z,2.90
2022-12-07T09:38:52.309Z,3.00
2022-12-07T09:41:22.079Z,3.00
2022-12-07T09:43:49.368Z,3.00
2022-12-07T09:46:17.779Z,3.00
2022-12-07T09:48:47.945Z,3.10
2022-12-07T09:51:20.945Z,3.10
2022-12-07T09:53:52.029Z,3.10
2022-12-07T09:56:22.162Z,3.10
2022-12-07T09:58:49.313Z,3.10
2022-12-07T10:01:20.180Z,3.10
2022-12-07T10:03:54.320Z,3.10
2022-12-07T10:06:21.702Z,3.10
2022-12-07T10:08:48.972Z,3.10
2022-12-07T10:11:17.111Z,3.20
2022-12-07T10:13:46.234Z,3.20
2022-12-07T10:16:33.340Z,3.20
2022-12-07T10:19:12.454Z,3.20
2022-12-07T10:21:39.705Z,3.30
2022-12-07T10:24:17.821Z,3.30
2022-12-07T10:26:50.417Z,3.40
2022-12-07T10:29:24.966Z,3.40
2022-12-07T10:31:55.374Z,3.40
2022-12-07T10:34:26.857Z,3.40
2022-12-07T10:36:54.475Z,3.40
2022-12-07T10:39:22.405Z,3.50
2022-12-07T10:41:57.314Z,3.50
2022-12-07T10:44:25.577Z,3.50
2022-12-07T10:47:02.693Z,3.50
2022-12-07T10:49:29.971Z,3.50
2022-12-07T10:52:02.604Z,3.60
2022-12-07T10:54:37.668Z,3.70
2022-12-07T10:57:12.157Z,3.70
2022-12-07T10:59:39.194Z,3.70
2022-12-07T11:02:25.382Z,3.80
2022-12-07T11:05:07.612Z,3.80
2022-12-07T11:07:34.739Z,3.80
2022-12-07T11:10:09.831Z,3.90
2022-12-07T11:12:40.684Z,4.00
2022-12-07T11:15:07.817Z,4.00
2022-12-07T11:17:36.973Z,4.10
2022-12-07T11:20:29.488Z,4.10
2022-12-07T11:23:02.596Z,4.10
2022-12-07T11:25:37.963Z,4.10
2022-12-07T11:28:15.501Z,4.10
2022-12-07T11:30:52.268Z,4.10
2022-12-07T11:33:22.555Z,4.20
2022-12-07T11:35:49.755Z,4.30
2022-12-07T11:38:18.957Z,4.30
2022-12-07T11:40:49.586Z,4.30
2022-12-07T11:43:23.008Z,4.30
2022-12-07T11:46:00.798Z,4.30
2022-12-07T11:49:00.566Z,4.30
2022-12-07T11:51:33.245Z,4.30
2022-12-07T11:54:04.552Z,4.30
2022-12-07T11:56:31.648Z,4.30
2022-12-07T11:59:01.623Z,4.20
2022-12-07T12:01:32.012Z,4.10
2022-12-07T12:04:02.322Z,4.10
2022-12-07T12:06:29.433Z,4.00
2022-12-07T12:11:51.797Z,4.00
2022-12-07T12:14:35.173Z,4.00
2022-12-07T12:17:19.155Z,3.90
2022-12-07T12:19:58.061Z,3.90
2022-12-07T12:22:28.593Z,3.90
2022-12-07T12:24:55.718Z,3.80
2022-12-07T12:27:24.523Z,3.80
2022-12-07T12:29:58.996Z,3.80
2022-12-07T12:32:33.378Z,3.80
2022-12-07T12:35:20.918Z,3.70
2022-12-07T12:37:48.137Z,3.70
2022-12-07T12:40:15.267Z,3.70
2022-12-07T12:42:46.296Z,3.70
2022-12-07T12:45:21.531Z,3.70
2022-12-07T12:48:01.795Z,3.60
2022-12-07T12:50:29.882Z,3.60
2022-12-07T12:52:59.094Z,3.50
2022-12-07T12:55:49.599Z,3.60
2022-12-07T12:58:20.945Z,3.60
2022-12-07T13:00:48.240Z,3.50
2022-12-07T13:03:23.111Z,3.60
2022-12-07T13:05:50.187Z,3.60
2022-12-07T13:08:21.991Z,3.60
2022-12-07T13:10:49.128Z,3.60
2022-12-07T13:13:16.349Z,3.60
2022-12-07T13:15:46.605Z,3.60
2022-12-07T13:18:29.330Z,3.70
2022-12-07T13:20:57.333Z,3.60
2022-12-07T13:23:28.393Z,3.70
2022-12-07T13:25:56.793Z,3.70
2022-12-07T13:28:27.231Z,3.70
2022-12-07T13:30:58.949Z,3.70
2022-12-07T13:33:26.152Z,3.70
2022-12-07T13:35:54.822Z,3.60
2022-12-07T13:38:29.524Z,3.60
2022-12-07T13:41:23.844Z,3.60
2022-12-07T13:43:55.695Z,3.60
2022-12-07T13:46:46.432Z,3.60
2022-12-07T13:49:24.370Z,3.60
2022-12-07T13:51:51.602Z,3.60
2022-12-07T13:54:19.815Z,3.60
2022-12-07T13:56:51.325Z,3.60
2022-12-07T13:59:21.958Z,3.50
2022-12-07T14:01:49.691Z,3.50
2022-12-07T14:04:36.604Z,3.50
2022-12-07T14:07:23.609Z,3.50
2022-12-07T14:10:14.019Z,3.40
2022-12-07T14:12:41.209Z,3.40
2022-12-07T14:15:16.742Z,3.40
2022-12-07T14:17:50.995Z,3.40
2022-12-07T14:20:31.674Z,3.40
2022-12-07T14:22:58.829Z,3.40
2022-12-07T14:25:27.708Z,3.40
2022-12-07T14:28:01.412Z,3.40
2022-12-07T14:30:29.694Z,3.40
2022-12-07T14:33:01.499Z,3.30
2022-12-07T14:35:29.025Z,3.30
2022-12-07T14:37:56.422Z,3.30
2022-12-07T14:40:24.907Z,3.30
2022-12-07T14:42:53.216Z,3.30
2022-12-07T14:45:22.462Z,3.30
2022-12-07T14:50:39.735Z,3.20
2022-12-07T14:53:32.413Z,3.20
2022-12-07T14:55:59.749Z,3.20
2022-12-07T14:58:26.953Z,3.10
2022-12-07T15:00:54.177Z,3.10
2022-12-07T15:03:21.341Z,3.00
2022-12-07T15:05:48.549Z,3.00
2022-12-07T15:08:15.823Z,3.00
2022-12-07T15:10:45.046Z,3.00
2022-12-07T15:13:30.914Z,3.00
2022-12-07T15:15:58.082Z,2.90
2022-12-07T15:18:25.348Z,2.90
2022-12-07T15:20:52.587Z,2.90
2022-12-07T15:23:19.684Z,2.90
2022-12-07T15:25:48.269Z,2.80
2022-12-07T15:28:15.522Z,2.80
2022-12-07T15:30:43.835Z,2.80
2022-12-07T15:33:11.580Z,2.80
2022-12-07T15:35:42.037Z,2.80
2022-12-07T15:38:09.349Z,2.70
2022-12-07T15:40:36.485Z,2.70
2022-12-07T15:43:04.859Z,2.70
2022-12-07T15:45:32.025Z,2.70
2022-12-07T15:50:46.381Z,2.70
2022-12-07T15:53:15.526Z,2.70
2022-12-07T15:55:42.702Z,2.70
2022-12-07T15:58:10.005Z,2.70
2022-12-07T16:00:41.479Z,2.70
2022-12-07T16:03:08.780Z,2.70
2022-12-07T16:05:35.989Z,2.70
2022-12-07T16:08:03.181Z,2.70
2022-12-07T16:10:30.423Z,2.70
2022-12-07T16:12:57.598Z,2.70
2022-12-07T16:15:26.434Z,2.70
2022-12-07T16:17:54.460Z,2.70
2022-12-07T16:20:21.817Z,2.60
2022-12-07T16:22:51.855Z,2.60
2022-12-07T16:25:18.991Z,2.60
2022-12-07T16:27:46.096Z,2.60
2022-12-07T16:30:13.502Z,2.60
2022-12-07T16:32:40.606Z,2.60
2022-12-07T16:35:07.847Z,2.60
2022-12-07T16:37:35.973Z,2.60
2022-12-07T16:40:03.280Z,2.60
2022-12-07T16:42:34.583Z,2.50
2022-12-07T16:45:02.431Z,2.50
2022-12-07T16:47:29.946Z,2.50
2022-12-07T16:49:57.069Z,2.50
2022-12-07T16:52:24.214Z,2.50
2022-12-07T16:54:51.329Z,2.50
2022-12-07T16:57:22.867Z,2.50
2022-12-07T16:59:51.393Z,2.40
2022-12-07T17:02:18.466Z,2.40
2022-12-07T17:04:46.898Z,2.40
2022-12-07T17:07:13.996Z,2.40
2022-12-07T17:09:45.110Z,2.40
2022-12-07T17:12:12.275Z,2.40
2022-12-07T17:15:02.239Z,2.40
2022-12-07T17:17:29.947Z,2.40
2022-12-07T17:19:57.266Z,2.40
2022-12-07T17:22:27.074Z,2.40
2022-12-07T17:24:54.263Z,2.40
2022-12-07T17:27:21.762Z,2.30
2022-12-07T17:29:51.053Z,2.30
2022-12-07T17:32:21.080Z,2.30
2022-12-07T17:34:48.747Z,2.30
2022-12-07T17:37:51.258Z,2.20
2022-12-07T17:40:19.308Z,2.20
2022-12-07T17:42:50.316Z,2.20
2022-12-07T17:45:51.387Z,2.10
2022-12-07T17:48:18.666Z,2.10
2022-12-07T17:51:08.098Z,2.10
2022-12-07T17:53:35.438Z,2.10
2022-12-07T17:58:50.995Z,2.10
2022-12-07T18:01:57.475Z,2.00
2022-12-07T18:04:24.927Z,2.00
2022-12-07T18:06:53.005Z,2.00
2022-12-07T18:16:35.646Z,1.90
2022-12-07T18:19:03.643Z,1.90
2022-12-07T18:21:35.039Z,1.90
2022-12-07T18:24:03.240Z,1.90
2022-12-07T18:26:31.313Z,1.90
2022-12-07T18:29:14.704Z,1.80
2022-12-07T18:31:41.956Z,1.80
2022-12-07T18:34:17.052Z,1.90
2022-12-07T18:36:47.882Z,1.80
2022-12-07T18:39:19.343Z,1.80
2022-12-07T18:41:46.762Z,1.80
2022-12-07T18:44:14.072Z,1.90
2022-12-07T18:46:47.281Z,1.80
2022-12-07T18:49:14.669Z,1.80
2022-12-07T18:51:42.023Z,1.90
2022-12-07T18:54:10.636Z,1.90
2022-12-07T18:56:37.693Z,1.90
2022-12-07T18:59:24.645Z,1.90
2022-12-07T19:01:53.042Z,1.90
2022-12-07T19:07:58.955Z,1.90
2022-12-07T19:10:26.336Z,1.90
2022-12-07T19:16:31.269Z,1.90
2022-12-07T19:18:58.433Z,1.90
2022-12-07T19:21:55.236Z,1.90
2022-12-07T19:24:23.893Z,1.90
2022-12-07T19:26:52.008Z,1.90
2022-12-07T19:29:19.525Z,1.80
2022-12-07T19:31:47.053Z,1.80
2022-12-07T19:34:16.290Z,1.80
2022-12-07T19:36:47.316Z,1.70
2022-12-07T19:39:17.221Z,1.70
2022-12-07T19:41:44.867Z,1.70
2022-12-07T19:44:13.253Z,1.70
2022-12-07T19:46:43.895Z,1.60
2022-12-07T19:49:13.339Z,1.60
2022-12-07T19:51:42.233Z,1.60
2022-12-07T19:54:14.832Z,1.50
2022-12-07T19:56:45.138Z,1.50
2022-12-07T19:59:16.534Z,1.40
2022-12-07T20:01:43.731Z,1.40
2022-12-07T20:04:12.054Z,1.50
2022-12-07T20:06:44.502Z,1.50
2022-12-07T20:09:12.004Z,1.50
2022-12-07T20:12:16.187Z,1.50
2022-12-07T20:15:10.763Z,1.50
2022-12-07T20:17:38.013Z,1.50
2022-12-07T20:20:09.169Z,1.50
2022-12-07T20:22:36.622Z,1.50
2022-12-07T20:25:04.196Z,1.50
2022-12-07T20:27:31.661Z,1.50
2022-12-07T20:30:31.288Z,1.50
2022-12-07T20:32:58.615Z,1.50
2022-12-07T20:35:25.982Z,1.50
2022-12-07T20:37:54.224Z,1.50
2022-12-07T20:40:21.479Z,1.50
2022-12-07T20:42:48.563Z,1.50
2022-12-07T20:45:15.975Z,1.60
2022-12-07T20:48:33.773Z,1.60
2022-12-07T20:51:07.267Z,1.60
2022-12-07T20:53:35.056Z,1.60
2022-12-07T20:56:29.275Z,1.60
2022-12-07T20:58:57.090Z,1.60
2022-12-07T21:01:24.869Z,1.60
2022-12-07T21:03:57.248Z,1.60
2022-12-07T21:06:24.785Z,1.60
2022-12-07T21:08:53.202Z,1.60
2022-12-07T21:14:57.021Z,1.60
2022-12-07T21:17:24.405Z,1.60
2022-12-07T21:23:54.497Z,1.70
2022-12-07T21:27:05.124Z,1.70
2022-12-07T21:29:43.010Z,1.70
2022-12-07T21:32:10.875Z,1.70
2022-12-07T21:38:44.604Z,1.70
2022-12-07T21:41:12.844Z,1.70
2022-12-07T21:43:39.987Z,1.70
2022-12-07T21:46:11.061Z,1.70
2022-12-07T21:48:38.157Z,1.70
2022-12-07T21:51:09.128Z,1.80
2022-12-07T21:57:31.495Z,1.70
2022-12-07T22:00:02.076Z,1.80
2022-12-07T22:02:32.190Z,1.70
2022-12-07T22:04:59.365Z,1.80
2022-12-07T22:11:03.827Z,1.80
2022-12-07T22:14:15.804Z,1.80
2022-12-07T22:17:13.891Z,1.70
2022-12-07T22:19:40.949Z,1.80
2022-12-07T22:22:13.044Z,1.70
2022-12-07T22:24:40.126Z,1.70
2022-12-07T22:27:10.853Z,1.70
2022-12-07T22:29:39.005Z,1.70
2022-12-07T22:32:39.430Z,1.70
2022-12-07T22:34:53.138Z,1.70
2022-12-07T22:37:20.225Z,1.70
2022-12-07T22:39:47.237Z,1.70
2022-12-07T22:42:14.195Z,1.70
2022-12-07T22:44:42.984Z,1.70
2022-12-07T22:47:09.942Z,1.70
2022-12-07T22:49:36.940Z,1.70
2022-12-07T22:52:03.968Z,1.70
2022-12-07T22:57:13.915Z,1.70
2022-12-07T23:02:22.194Z,1.70
2022-12-07T23:04:49.213Z,1.70
2022-12-07T23:07:16.174Z,1.70
2022-12-07T23:09:43.146Z,1.70
2022-12-07T23:12:28.903Z,1.70
2022-12-07T23:14:55.856Z,1.70
2022-12-07T23:17:22.823Z,1.70
2022-12-07T23:19:55.398Z,1.70
2022-12-07T23:22:23.029Z,1.70
2022-12-07T23:24:49.985Z,1.70
2022-12-07T23:27:16.958Z,1.70
2022-12-07T23:29:43.965Z,1.70
2022-12-07T23:32:10.941Z,1.70
2022-12-07T23:34:37.977Z,1.70
2022-12-07T23:37:04.945Z,1.80
2022-12-07T23:39:31.979Z,1.80
2022-12-07T23:41:58.941Z,1.80
2022-12-07T23:44:27.239Z,1.70
2022-12-07T23:46:54.763Z,1.80
2022-12-07T23:49:21.778Z,1.80
2022-12-07T23:51:48.764Z,1.80
2022-12-07T23:54:15.756Z,1.70
2022-12-07T23:56:43.237Z,1.70
2022-12-07T23:59:13.319Z,1.80
